Billings, MT

1:13 AM MDT on October 26, 2014 (GMT -0600)
Billings Logan International | Change Station
CLOSE
Current Station
Airport
Location: Billings,
Elevation: 3570 ft
Nearby Weather Stations

Elev 3570 ft 45.81 °N, 108.54 °W | Updated 20 minutes ago

Mostly Cloudy
Mostly Cloudy
51 °F
Feels Like 51 °F
N
16
Wind Variable Wind from SW

Today
High -- | Low -- °F
--% Chance of Precip.
Yesterday
High -- | Low -- °F
Precip. -- in
7:45 AM 6:09 PM
Waxing Crescent, 6% visible
Pressure 29.60 in
Visibility 10.0 miles
Clouds Scattered Clouds 20000 ft
Dew Point 35 °F
Humidity 54%
Rainfall 0.00 in
Snow Depth Not available.
UV 0 out of 12
Pollen 2.00 out of 12
Air Quality Not available.
Flu Activity No Activity
METAR KBIL 260653Z 22014KT 10SM SCT200 11/02 A2963 RMK AO2 SLP024 T01060017 401830011

More Conditions Fewer Conditions

Pressure 29.60 in
Visibility 10.0 miles
Clouds Scattered Clouds 20000 ft
Dew Point 35 °F
Humidity 54%
Rainfall 0.00 in
Snow Depth Not available.
UV 0 out of 12
Pollen 2.00 out of 12
Air Quality Not available.
Flu Activity No Activity
METAR KBIL 260653Z 22014KT 10SM SCT200 11/02 A2963 RMK AO2 SLP024 T01060017 401830011

More Conditions Fewer Conditions

10-Day Weather Forecast

Almanac

Astronomy

Oct. 26, 2014 Rise Set
Actual Time 7:45 AM MDT 6:09 PM MDT
Civil Twilight 7:15 AM MDT 6:40 PM MDT
Nautical Twilight 6:40 AM MDT 7:14 PM MDT
Astronomical Twilight 6:05 AM MDT 7:49 PM MDT
Moon 10:32 AM MDT 8:17 PM MDT
Length of Visible Light 11h 25m
Length of Day
10h 23m
Tomorrow will be 2m 58s shorter.
Waxing Crescent, 6% of the Moon is Illuminated
Today
Waxing Crescent
Oct 30
First Quarter
Nov 6
Full
Nov 14
Last Quarter
Nov 22
New

Today's Extremes

State Highs State Lows

Community

WunderPhotos

Upload Photos

1,765,115 photos uploaded!

Nearby

Snow Depth

Station Depth Elevation
Burnt Mountain 0 in 5880 ft
Crystal Lake 0 in 6050 ft
Fisher Creek 1 in 9100 ft
Northeast Entrance 0 in 7350 ft
Box Canyon 0 in 6700 ft

Earthquake Activity

City Distance Mag. Time & Date
No recent earthquake activity has been reported nearby.
Minimum magnitude displayed is 2.5.

Coastal Water Temperatures

Place Temperature
No Stations Reporting

Nearby Weather Stations